PWSweather.com
Personal Weather Stations
Station Observations
WAREHAM1
West Wareham, MA 02576

West Wareham, MA 02576

Lat: 41.7961059, Lon: -70.775612

Elevation: 88

Station Type: Davis Vantage Vue

http://www.gateway2capecod.com

High Low Average
Temperature 53.8°F12.1°F 48.7°F9.3°F 51.3°F10.7°F
Dew Point 51.3°F10.7°F 44.4°F6.9°F 48.6°F9.2°F
Winds 2.9 mph NW4.7 mph NW Calm Calm 1.2 mph 1.9 mph
Wind Gusts 13.0 mph20.9 mph -- 5.3 mph8.5 mph
Humidity 97% 83% 91%
Pressure 29.75 in1007.50 in 29.61 in1002.70 in -
Precipitation 0.42 in10.70 in - -
Hour Temp Dew Point Humidity Winds Wind Gusts Pressure Precip Precip Rate Daily Precip Total
12:00 AM 52.3°F11.3°C 51.3°F10.7°C 96% 2.0 mph NNW3.2 kmh NNW 8.1 mph13.0 kmh 29.61 in1002.7 mb 0.02 in0.5 mm 0.00 in/hr0.0 mm/hr 0.02 in0.5 mm
12:10 AM 52.2°F11.2°C 51.1°F10.6°C 96% 2.9 mph NNW4.7 kmh NNW 8.1 mph13.0 kmh 29.62 in1003.0 mb 0.02 in0.5 mm 0.00 in/hr0.0 mm/hr 0.02 in0.5 mm
12:20 AM 52.0°F11.1°C 50.9°F10.5°C 96% 2.0 mph NE3.2 kmh NE 12.1 mph19.5 kmh 29.62 in1003.0 mb 0.01 in0.3 mm 0.00 in/hr0.0 mm/hr 0.02 in0.5 mm
12:30 AM 52.0°F11.1°C 50.9°F10.5°C 96% 2.0 mph N3.2 kmh N 8.0 mph12.9 kmh 29.62 in1003.0 mb 0.02 in0.5 mm 0.06 in/hr1.5 mm/hr 0.01 in0.3 mm
12:40 AM 51.8°F11.0°C 50.7°F10.4°C 96% 2.9 mph NW4.7 kmh NW 8.9 mph14.3 kmh 29.62 in1003.0 mb 0.02 in0.5 mm 0.00 in/hr0.0 mm/hr 0.01 in0.3 mm
12:50 AM 51.6°F10.9°C 50.5°F10.3°C 96% 2.0 mph W3.2 kmh W 11.0 mph17.7 kmh 29.62 in1003.0 mb 0.01 in0.3 mm 0.00 in/hr0.0 mm/hr 0.02 in0.5 mm
01:00 AM 51.6°F10.9°C 50.5°F10.3°C 96% 2.9 mph NW4.7 kmh NW 8.1 mph13.0 kmh 29.61 in1002.7 mb 0.02 in0.5 mm 0.01 in/hr0.3 mm/hr 0.02 in0.5 mm
01:10 AM 51.4°F10.8°C 50.4°F10.2°C 96% 2.9 mph NW4.7 kmh NW 13.0 mph20.9 kmh 29.61 in1002.7 mb 0.03 in0.8 mm 0.06 in/hr1.5 mm/hr 0.03 in0.8 mm
01:20 AM 51.4°F10.8°C 50.4°F10.2°C 96% 2.9 mph N4.7 kmh N 11.0 mph17.7 kmh 29.61 in1002.7 mb 0.03 in0.8 mm 0.00 in/hr0.0 mm/hr 0.03 in0.8 mm
01:30 AM 51.3°F10.7°C 50.2°F10.1°C 96% 2.0 mph NW3.2 kmh NW 6.9 mph11.1 kmh 29.62 in1003.0 mb 0.02 in0.5 mm 0.00 in/hr0.0 mm/hr 0.03 in0.8 mm
01:40 AM 51.3°F10.7°C 50.2°F10.1°C 96% 2.0 mph N3.2 kmh N 12.0 mph19.3 kmh 29.61 in1002.7 mb 0.02 in0.5 mm 0.00 in/hr0.0 mm/hr 0.03 in0.8 mm
01:45 AM -5537.2°C -5537.2°C - - N16091.8 kmh N -- -338605.1 mb 0.00 in0.0 mm 0.00 in/hr0.0 mm/hr 0.05 in1.3 mm
01:50 AM 51.1°F10.6°C 50.0°F10.0°C 96% 2.9 mph ESE4.7 kmh ESE 12.0 mph19.3 kmh 29.62 in1003.0 mb 0.01 in0.3 mm 0.12 in/hr3.0 mm/hr 0.03 in0.8 mm
02:00 AM 51.1°F10.6°C 50.0°F10.0°C 96% 2.0 mph WSW3.2 kmh WSW 9.0 mph14.5 kmh 29.62 in1003.0 mb 0.02 in0.5 mm 0.01 in/hr0.3 mm/hr 0.04 in1.0 mm
02:10 AM 50.9°F10.5°C 49.8°F9.9°C 96% 2.0 mph NNW3.2 kmh NNW 6.0 mph9.7 kmh 29.62 in1003.0 mb 0.01 in0.3 mm 0.00 in/hr0.0 mm/hr 0.04 in1.0 mm
02:20 AM 50.7°F10.4°C 49.6°F9.8°C 96% 2.0 mph NW3.2 kmh NW 7.0 mph11.3 kmh 29.62 in1003.0 mb 0.01 in0.3 mm 0.00 in/hr0.0 mm/hr 0.04 in1.0 mm
02:30 AM 50.7°F10.4°C 49.6°F9.8°C 96% 2.0 mph WNW3.2 kmh WNW 8.1 mph13.0 kmh 29.63 in1003.4 mb 0.01 in0.3 mm 0.00 in/hr0.0 mm/hr 0.04 in1.0 mm
02:40 AM 50.7°F10.4°C 49.6°F9.8°C 96% 2.0 mph W3.2 kmh W 9.0 mph14.5 kmh 29.63 in1003.4 mb 0.01 in0.3 mm 0.00 in/hr0.0 mm/hr 0.04 in1.0 mm
02:50 AM 50.5°F10.3°C 49.5°F9.7°C 96% 2.0 mph NW3.2 kmh NW 8.0 mph12.9 kmh 29.63 in1003.4 mb 0.02 in0.5 mm 0.06 in/hr1.5 mm/hr 0.05 in1.3 mm
03:00 AM 50.5°F10.3°C 49.5°F9.7°C 96% 2.0 mph NW3.2 kmh NW 4.9 mph7.9 kmh 29.62 in1003.0 mb 0.01 in0.3 mm 0.00 in/hr0.0 mm/hr 0.05 in1.3 mm
03:10 AM 50.4°F10.2°C 49.3°F9.6°C 96% 2.0 mph N3.2 kmh N 6.0 mph9.7 kmh 29.62 in1003.0 mb 0.01 in0.3 mm 0.00 in/hr0.0 mm/hr 0.05 in1.3 mm
03:20 AM 50.4°F10.2°C 49.3°F9.6°C 96% 2.0 mph NW3.2 kmh NW 6.0 mph9.7 kmh 29.62 in1003.0 mb 0.01 in0.3 mm 0.00 in/hr0.0 mm/hr 0.05 in1.3 mm
03:30 AM 50.4°F10.2°C 49.3°F9.6°C 96% 2.0 mph NW3.2 kmh NW 9.0 mph14.5 kmh 29.62 in1003.0 mb 0.01 in0.3 mm 0.00 in/hr0.0 mm/hr 0.05 in1.3 mm
03:40 AM 50.2°F10.1°C 49.1°F9.5°C 96% 2.0 mph W3.2 kmh W 12.0 mph19.3 kmh 29.62 in1003.0 mb 0.01 in0.3 mm 0.00 in/hr0.0 mm/hr 0.05 in1.3 mm
03:50 AM 50.2°F10.1°C 49.1°F9.5°C 96% 2.0 mph WNW3.2 kmh WNW 9.0 mph14.5 kmh 29.63 in1003.4 mb 0.00 in0.0 mm 0.00 in/hr0.0 mm/hr 0.05 in1.3 mm
04:00 AM 50.2°F10.1°C 49.1°F9.5°C 96% 2.0 mph SW3.2 kmh SW 7.0 mph11.3 kmh 29.63 in1003.4 mb 0.00 in0.0 mm 0.00 in/hr0.0 mm/hr 0.05 in1.3 mm
04:10 AM 50.0°F10.0°C 48.9°F9.4°C 96% 2.0 mph NW3.2 kmh NW 6.0 mph9.7 kmh 29.63 in1003.4 mb 0.00 in0.0 mm 0.00 in/hr0.0 mm/hr 0.05 in1.3 mm
04:20 AM 49.8°F9.9°C 48.7°F9.3°C 96% 2.0 mph NW3.2 kmh NW 6.0 mph9.7 kmh 29.63 in1003.4 mb 0.00 in0.0 mm 0.00 in/hr0.0 mm/hr 0.05 in1.3 mm
04:30 AM 49.8°F9.9°C 48.7°F9.3°C 96% 2.0 mph WNW3.2 kmh WNW 9.0 mph14.5 kmh 29.64 in1003.7 mb 0.01 in0.3 mm 0.06 in/hr1.5 mm/hr 0.06 in1.5 mm
04:40 AM 49.6°F9.8°C 48.7°F9.3°C 97% 0.9 mph NNW1.4 kmh NNW 6.9 mph11.1 kmh 29.65 in1004.1 mb 0.01 in0.3 mm 0.00 in/hr0.0 mm/hr 0.06 in1.5 mm
04:50 AM 49.6°F9.8°C 48.6°F9.2°C 96% 0.9 mph NW1.4 kmh NW 4.0 mph6.4 kmh 29.65 in1004.1 mb 0.01 in0.3 mm 0.00 in/hr0.0 mm/hr 0.06 in1.5 mm
05:00 AM 49.5°F9.7°C 48.4°F9.1°C 96% 0.9 mph WNW1.4 kmh WNW 6.0 mph9.7 kmh 29.65 in1004.1 mb 0.01 in0.3 mm 0.00 in/hr0.0 mm/hr 0.06 in1.5 mm
05:10 AM 49.5°F9.7°C 48.4°F9.1°C 96% 2.0 mph NNW3.2 kmh NNW 4.9 mph7.9 kmh 29.65 in1004.1 mb 0.01 in0.3 mm 0.00 in/hr0.0 mm/hr 0.06 in1.5 mm
05:20 AM 49.5°F9.7°C 48.4°F9.1°C 96% 2.0 mph WNW3.2 kmh WNW 4.9 mph7.9 kmh 29.65 in1004.1 mb 0.01 in0.3 mm 0.00 in/hr0.0 mm/hr 0.06 in1.5 mm
05:30 AM 49.5°F9.7°C 48.4°F9.1°C 96% 0.9 mph WNW1.4 kmh WNW 4.0 mph6.4 kmh 29.65 in1004.1 mb 0.00 in0.0 mm 0.00 in/hr0.0 mm/hr 0.06 in1.5 mm
05:40 AM 49.5°F9.7°C 48.4°F9.1°C 96% 2.0 mph NW3.2 kmh NW 4.0 mph6.4 kmh 29.65 in1004.1 mb 0.00 in0.0 mm 0.00 in/hr0.0 mm/hr 0.06 in1.5 mm
05:50 AM 49.5°F9.7°C 48.4°F9.1°C 96% 2.0 mph WNW3.2 kmh WNW 6.0 mph9.7 kmh 29.65 in1004.1 mb 0.00 in0.0 mm 0.00 in/hr0.0 mm/hr 0.06 in1.5 mm
06:00 AM 49.5°F9.7°C 48.4°F9.1°C 96% 2.0 mph NNW3.2 kmh NNW 7.0 mph11.3 kmh 29.66 in1004.4 mb 0.00 in0.0 mm 0.00 in/hr0.0 mm/hr 0.06 in1.5 mm
06:10 AM 49.5°F9.7°C 48.4°F9.1°C 96% 2.0 mph NW3.2 kmh NW 7.0 mph11.3 kmh 29.66 in1004.4 mb 0.00 in0.0 mm 0.00 in/hr0.0 mm/hr 0.06 in1.5 mm
06:20 AM 49.3°F9.6°C 48.2°F9.0°C 96% 2.0 mph WSW3.2 kmh WSW 10.0 mph16.1 kmh 29.66 in1004.4 mb 0.00 in0.0 mm 0.00 in/hr0.0 mm/hr 0.06 in1.5 mm
06:30 AM 49.3°F9.6°C 48.2°F9.0°C 96% 2.0 mph NW3.2 kmh NW 8.1 mph13.0 kmh 29.67 in1004.7 mb 0.00 in0.0 mm 0.00 in/hr0.0 mm/hr 0.06 in1.5 mm
06:40 AM 49.3°F9.6°C 48.2°F9.0°C 96% 2.0 mph NW3.2 kmh NW 6.0 mph9.7 kmh 29.67 in1004.7 mb 0.00 in0.0 mm 0.00 in/hr0.0 mm/hr 0.06 in1.5 mm
06:50 AM 49.3°F9.6°C 48.2°F9.0°C 96% 0.9 mph NNW1.4 kmh NNW 6.0 mph9.7 kmh 29.67 in1004.7 mb 0.00 in0.0 mm 0.00 in/hr0.0 mm/hr 0.06 in1.5 mm
07:00 AM 49.3°F9.6°C 48.2°F9.0°C 96% 0.9 mph NW1.4 kmh NW 4.0 mph6.4 kmh 29.67 in1004.7 mb 0.00 in0.0 mm 0.00 in/hr0.0 mm/hr 0.06 in1.5 mm
07:10 AM 49.3°F9.6°C 48.2°F9.0°C 96% 0.9 mph NW1.4 kmh NW 6.0 mph9.7 kmh 29.67 in1004.7 mb 0.00 in0.0 mm 0.00 in/hr0.0 mm/hr 0.06 in1.5 mm
07:20 AM 49.3°F9.6°C 48.2°F9.0°C 96% 0.9 mph NW1.4 kmh NW 4.9 mph7.9 kmh 29.67 in1004.7 mb 0.00 in0.0 mm 0.00 in/hr0.0 mm/hr 0.06 in1.5 mm
07:30 AM 49.3°F9.6°C 48.2°F9.0°C 96% 0.9 mph NNW1.4 kmh NNW 5.0 mph8.0 kmh 29.67 in1004.7 mb 0.00 in0.0 mm 0.00 in/hr0.0 mm/hr 0.06 in1.5 mm
07:40 AM 49.5°F9.7°C 48.4°F9.1°C 96% 2.0 mph W3.2 kmh W 6.9 mph11.1 kmh 29.67 in1004.7 mb 0.00 in0.0 mm 0.00 in/hr0.0 mm/hr 0.06 in1.5 mm
07:50 AM 49.5°F9.7°C 48.4°F9.1°C 96% 2.0 mph NNW3.2 kmh NNW 7.0 mph11.3 kmh 29.67 in1004.7 mb 0.00 in0.0 mm 0.00 in/hr0.0 mm/hr 0.06 in1.5 mm
08:00 AM 49.5°F9.7°C 48.4°F9.1°C 96% 2.0 mph NW3.2 kmh NW 4.0 mph6.4 kmh 29.68 in1005.1 mb 0.00 in0.0 mm 0.00 in/hr0.0 mm/hr 0.06 in1.5 mm
08:10 AM 49.5°F9.7°C 48.4°F9.1°C 96% 0.9 mph WNW1.4 kmh WNW 4.0 mph6.4 kmh 29.68 in1005.1 mb 0.00 in0.0 mm 0.00 in/hr0.0 mm/hr 0.06 in1.5 mm
08:20 AM 49.5°F9.7°C 48.4°F9.1°C 96% 2.0 mph NW3.2 kmh NW 7.0 mph11.3 kmh 29.69 in1005.4 mb 0.00 in0.0 mm 0.00 in/hr0.0 mm/hr 0.06 in1.5 mm
08:30 AM 49.6°F9.8°C 48.6°F9.2°C 96% 2.0 mph NW3.2 kmh NW 8.1 mph13.0 kmh 29.69 in1005.4 mb 0.00 in0.0 mm 0.00 in/hr0.0 mm/hr 0.06 in1.5 mm
08:40 AM 49.8°F9.9°C 48.7°F9.3°C 96% 2.0 mph NW3.2 kmh NW 4.9 mph7.9 kmh 29.69 in1005.4 mb 0.00 in0.0 mm 0.00 in/hr0.0 mm/hr 0.06 in1.5 mm
08:50 AM 50.2°F10.1°C 49.1°F9.5°C 96% 2.0 mph WNW3.2 kmh WNW 10.1 mph16.3 kmh 29.69 in1005.4 mb 0.00 in0.0 mm 0.00 in/hr0.0 mm/hr 0.06 in1.5 mm
09:00 AM 50.5°F10.3°C 49.5°F9.7°C 96% 2.0 mph W3.2 kmh W 7.0 mph11.3 kmh 29.69 in1005.4 mb 0.00 in0.0 mm 0.00 in/hr0.0 mm/hr 0.06 in1.5 mm
09:10 AM 50.5°F10.3°C 49.5°F9.7°C 96% 0.9 mph W1.4 kmh W 4.9 mph7.9 kmh 29.69 in1005.4 mb 0.00 in0.0 mm 0.00 in/hr0.0 mm/hr 0.06 in1.5 mm
09:17 AM 50.5°F10.3°C 49.1°F9.5°C 95% - N16091.8 kmh N -- -338605.1 mb 0.00 in0.0 mm 0.00 in/hr0.0 mm/hr 0.06 in1.5 mm
09:27 AM 50.7°F10.4°C 49.3°F9.6°C 95% 2.0 mph W3.2 kmh W 8.1 mph13.0 kmh 29.70 in1005.8 mb 0.00 in0.0 mm 0.00 in/hr0.0 mm/hr 0.06 in1.5 mm
09:37 AM 50.9°F10.5°C 49.5°F9.7°C 95% 0.9 mph NW1.4 kmh NW 4.0 mph6.4 kmh 29.70 in1005.8 mb 0.00 in0.0 mm 0.00 in/hr0.0 mm/hr 0.06 in1.5 mm
09:47 AM 50.9°F10.5°C 49.5°F9.7°C 95% 2.0 mph NW3.2 kmh NW 6.0 mph9.7 kmh 29.70 in1005.8 mb 0.00 in0.0 mm 0.00 in/hr0.0 mm/hr 0.06 in1.5 mm
09:56 AM 51.6°F10.9°C 50.2°F10.1°C 95% 0.9 mph NW1.4 kmh NW -- 29.70 in1005.8 mb 0.00 in0.0 mm 0.00 in/hr0.0 mm/hr 0.06 in1.5 mm
10:06 AM 51.8°F11.0°C 49.8°F9.9°C 93% 0.9 mph NW1.4 kmh NW 4.9 mph7.9 kmh 29.70 in1005.8 mb 0.00 in0.0 mm 0.00 in/hr0.0 mm/hr 0.06 in1.5 mm
10:16 AM 52.0°F11.1°C 50.0°F10.0°C 93% 0.9 mph WNW1.4 kmh WNW 2.9 mph4.7 kmh 29.70 in1005.8 mb 0.00 in0.0 mm 0.00 in/hr0.0 mm/hr 0.06 in1.5 mm
10:26 AM 52.0°F11.1°C 50.0°F10.0°C 93% 0.9 mph WNW1.4 kmh WNW 6.9 mph11.1 kmh 29.70 in1005.8 mb 0.00 in0.0 mm 0.00 in/hr0.0 mm/hr 0.06 in1.5 mm
10:36 AM 51.6°F10.9°C 49.6°F9.8°C 93% 2.0 mph W3.2 kmh W 8.1 mph13.0 kmh 29.70 in1005.8 mb 0.00 in0.0 mm 0.00 in/hr0.0 mm/hr 0.06 in1.5 mm
10:46 AM 52.2°F11.2°C 49.8°F9.9°C 92% 2.0 mph W3.2 kmh W 6.0 mph9.7 kmh 29.70 in1005.8 mb 0.00 in0.0 mm 0.00 in/hr0.0 mm/hr 0.06 in1.5 mm
10:56 AM 52.9°F11.6°C 50.4°F10.2°C 91% 2.0 mph NW3.2 kmh NW 12.0 mph19.3 kmh 29.70 in1005.8 mb 0.00 in0.0 mm 0.00 in/hr0.0 mm/hr 0.06 in1.5 mm
11:06 AM 53.2°F11.8°C 50.7°F10.4°C 91% 2.0 mph NW3.2 kmh NW 6.0 mph9.7 kmh 29.70 in1005.8 mb 0.00 in0.0 mm 0.00 in/hr0.0 mm/hr 0.06 in1.5 mm
11:16 AM 53.4°F11.9°C 50.5°F10.3°C 90% 0.9 mph WSW1.4 kmh WSW 5.0 mph8.0 kmh 29.70 in1005.8 mb 0.00 in0.0 mm 0.00 in/hr0.0 mm/hr 0.06 in1.5 mm
11:26 AM 53.1°F11.7°C 49.8°F9.9°C 89% 2.0 mph NNW3.2 kmh NNW 6.0 mph9.7 kmh 29.70 in1005.8 mb 0.00 in0.0 mm 0.00 in/hr0.0 mm/hr 0.06 in1.5 mm
11:36 AM 53.2°F11.8°C 50.4°F10.2°C 90% 0.9 mph NW1.4 kmh NW 2.9 mph4.7 kmh 29.71 in1006.1 mb 0.00 in0.0 mm 0.00 in/hr0.0 mm/hr 0.06 in1.5 mm
11:46 AM 53.1°F11.7°C 50.2°F10.1°C 90% 0.9 mph NW1.4 kmh NW 6.0 mph9.7 kmh 29.71 in1006.1 mb 0.00 in0.0 mm 0.00 in/hr0.0 mm/hr 0.06 in1.5 mm
11:56 AM 52.7°F11.5°C 49.5°F9.7°C 89% 2.0 mph NNW3.2 kmh NNW 10.1 mph16.3 kmh 29.70 in1005.8 mb 0.00 in0.0 mm 0.00 in/hr0.0 mm/hr 0.06 in1.5 mm
12:06 PM 52.9°F11.6°C 50.0°F10.0°C 90% 2.0 mph W3.2 kmh W 6.0 mph9.7 kmh 29.70 in1005.8 mb 0.00 in0.0 mm 0.00 in/hr0.0 mm/hr 0.06 in1.5 mm
12:16 PM 52.3°F11.3°C 49.5°F9.7°C 90% 2.0 mph SSE3.2 kmh SSE 4.0 mph6.4 kmh 29.70 in1005.8 mb 0.00 in0.0 mm 0.00 in/hr0.0 mm/hr 0.06 in1.5 mm
12:26 PM 52.2°F11.2°C 49.6°F9.8°C 91% 0.9 mph NNW1.4 kmh NNW 5.0 mph8.0 kmh 29.69 in1005.4 mb 0.00 in0.0 mm 0.00 in/hr0.0 mm/hr 0.06 in1.5 mm
12:36 PM 52.2°F11.2°C 49.6°F9.8°C 91% 2.0 mph WNW3.2 kmh WNW 5.0 mph8.0 kmh 29.69 in1005.4 mb 0.00 in0.0 mm 0.00 in/hr0.0 mm/hr 0.06 in1.5 mm
12:46 PM 52.3°F11.3°C 49.8°F9.9°C 91% 2.0 mph WNW3.2 kmh WNW -- 29.69 in1005.4 mb 0.00 in0.0 mm 0.00 in/hr0.0 mm/hr 0.06 in1.5 mm
12:56 PM 52.2°F11.2°C 49.3°F9.6°C 90% 0.9 mph WNW1.4 kmh WNW 4.9 mph7.9 kmh 29.68 in1005.1 mb 0.00 in0.0 mm 0.00 in/hr0.0 mm/hr 0.06 in1.5 mm
01:06 PM 52.5°F11.4°C 49.6°F9.8°C 90% 0.9 mph W1.4 kmh W 4.0 mph6.4 kmh 29.68 in1005.1 mb 0.00 in0.0 mm 0.00 in/hr0.0 mm/hr 0.06 in1.5 mm
01:16 PM 52.9°F11.6°C 49.5°F9.7°C 88% 2.0 mph NNW3.2 kmh NNW 6.0 mph9.7 kmh 29.68 in1005.1 mb 0.00 in0.0 mm 0.00 in/hr0.0 mm/hr 0.06 in1.5 mm
01:26 PM 53.1°F11.7°C 49.6°F9.8°C 88% 0.9 mph W1.4 kmh W 6.0 mph9.7 kmh 29.68 in1005.1 mb 0.00 in0.0 mm 0.00 in/hr0.0 mm/hr 0.06 in1.5 mm
01:36 PM 53.2°F11.8°C 49.8°F9.9°C 88% 0.9 mph NW1.4 kmh NW 2.9 mph4.7 kmh 29.68 in1005.1 mb 0.00 in0.0 mm 0.00 in/hr0.0 mm/hr 0.06 in1.5 mm
01:46 PM 52.9°F11.6°C 49.1°F9.5°C 87% 0.9 mph NW1.4 kmh NW 7.0 mph11.3 kmh 29.68 in1005.1 mb 0.00 in0.0 mm 0.00 in/hr0.0 mm/hr 0.06 in1.5 mm
01:56 PM 52.7°F11.5°C 49.3°F9.6°C 88% 0.9 mph NW1.4 kmh NW 6.0 mph9.7 kmh 29.68 in1005.1 mb 0.00 in0.0 mm 0.00 in/hr0.0 mm/hr 0.06 in1.5 mm
02:06 PM 52.5°F11.4°C 49.1°F9.5°C 88% 0.9 mph NW1.4 kmh NW 2.9 mph4.7 kmh 29.68 in1005.1 mb 0.00 in0.0 mm 0.00 in/hr0.0 mm/hr 0.06 in1.5 mm
02:16 PM 52.5°F11.4°C 49.5°F9.7°C 89% 0.9 mph W1.4 kmh W 2.0 mph3.2 kmh 29.69 in1005.4 mb 0.00 in0.0 mm 0.00 in/hr0.0 mm/hr 0.06 in1.5 mm
02:26 PM 52.7°F11.5°C 49.5°F9.7°C 89% 0.9 mph N1.4 kmh N 3.0 mph4.8 kmh 29.68 in1005.1 mb 0.00 in0.0 mm 0.00 in/hr0.0 mm/hr 0.06 in1.5 mm
02:36 PM 52.9°F11.6°C 49.5°F9.7°C 88% 0.9 mph NW1.4 kmh NW 4.0 mph6.4 kmh 29.69 in1005.4 mb 0.00 in0.0 mm 0.00 in/hr0.0 mm/hr 0.06 in1.5 mm
02:46 PM 52.9°F11.6°C 49.5°F9.7°C 88% 0.9 mph E1.4 kmh E 5.0 mph8.0 kmh 29.69 in1005.4 mb 0.00 in0.0 mm 0.00 in/hr0.0 mm/hr 0.06 in1.5 mm
02:56 PM 52.9°F11.6°C 49.1°F9.5°C 87% 0.9 mph WSW1.4 kmh WSW 6.0 mph9.7 kmh 29.69 in1005.4 mb 0.00 in0.0 mm 0.00 in/hr0.0 mm/hr 0.06 in1.5 mm
03:06 PM 52.9°F11.6°C 49.1°F9.5°C 87% 0.9 mph WNW1.4 kmh WNW 4.0 mph6.4 kmh 29.69 in1005.4 mb 0.00 in0.0 mm 0.00 in/hr0.0 mm/hr 0.06 in1.5 mm
03:16 PM 53.1°F11.7°C 48.9°F9.4°C 86% 0.9 mph NW1.4 kmh NW 7.0 mph11.3 kmh 29.69 in1005.4 mb 0.00 in0.0 mm 0.00 in/hr0.0 mm/hr 0.06 in1.5 mm
03:26 PM 53.2°F11.8°C 49.1°F9.5°C 86% Calm Calm 4.0 mph6.4 kmh 29.69 in1005.4 mb 0.00 in0.0 mm 0.00 in/hr0.0 mm/hr 0.06 in1.5 mm
03:36 PM 53.4°F11.9°C 49.3°F9.6°C 86% Calm Calm 3.0 mph4.8 kmh 29.69 in1005.4 mb 0.00 in0.0 mm 0.00 in/hr0.0 mm/hr 0.06 in1.5 mm
03:46 PM 53.4°F11.9°C 49.3°F9.6°C 86% 0.9 mph NW1.4 kmh NW 3.0 mph4.8 kmh 29.69 in1005.4 mb 0.00 in0.0 mm 0.00 in/hr0.0 mm/hr 0.06 in1.5 mm
03:56 PM 53.2°F11.8°C 49.1°F9.5°C 86% 0.9 mph N1.4 kmh N 3.0 mph4.8 kmh 29.70 in1005.8 mb 0.00 in0.0 mm 0.00 in/hr0.0 mm/hr 0.06 in1.5 mm
04:06 PM 53.1°F11.7°C 48.9°F9.4°C 86% 0.9 mph NNW1.4 kmh NNW 4.0 mph6.4 kmh 29.70 in1005.8 mb 0.00 in0.0 mm 0.00 in/hr0.0 mm/hr 0.06 in1.5 mm
04:16 PM 53.1°F11.7°C 49.3°F9.6°C 87% Calm Calm 4.0 mph6.4 kmh 29.70 in1005.8 mb 0.00 in0.0 mm 0.00 in/hr0.0 mm/hr 0.06 in1.5 mm
04:26 PM 53.2°F11.8°C 49.1°F9.5°C 86% Calm Calm 2.9 mph4.7 kmh 29.70 in1005.8 mb 0.00 in0.0 mm 0.00 in/hr0.0 mm/hr 0.06 in1.5 mm
04:36 PM 53.6°F12.0°C 49.5°F9.7°C 86% 0.9 mph SW1.4 kmh SW 3.0 mph4.8 kmh 29.70 in1005.8 mb 0.00 in0.0 mm 0.00 in/hr0.0 mm/hr 0.06 in1.5 mm
04:46 PM 53.8°F12.1°C 49.5°F9.7°C 85% Calm Calm 2.0 mph3.2 kmh 29.70 in1005.8 mb 0.00 in0.0 mm 0.00 in/hr0.0 mm/hr 0.06 in1.5 mm
04:56 PM 53.4°F11.9°C 49.1°F9.5°C 85% Calm Calm 3.0 mph4.8 kmh 29.70 in1005.8 mb 0.00 in0.0 mm 0.00 in/hr0.0 mm/hr 0.06 in1.5 mm
05:06 PM 53.2°F11.8°C 48.9°F9.4°C 85% Calm Calm 2.0 mph3.2 kmh 29.71 in1006.1 mb 0.00 in0.0 mm 0.00 in/hr0.0 mm/hr 0.06 in1.5 mm
05:16 PM 53.1°F11.7°C 48.9°F9.4°C 86% Calm Calm 2.9 mph4.7 kmh 29.71 in1006.1 mb 0.00 in0.0 mm 0.00 in/hr0.0 mm/hr 0.06 in1.5 mm
05:26 PM 52.9°F11.6°C 48.7°F9.3°C 86% Calm Calm 2.9 mph4.7 kmh 29.71 in1006.1 mb 0.00 in0.0 mm 0.00 in/hr0.0 mm/hr 0.06 in1.5 mm
05:36 PM 52.7°F11.5°C 48.6°F9.2°C 86% Calm Calm 2.0 mph3.2 kmh 29.72 in1006.4 mb 0.00 in0.0 mm 0.00 in/hr0.0 mm/hr 0.06 in1.5 mm
05:46 PM 52.5°F11.4°C 48.4°F9.1°C 86% Calm Calm 2.9 mph4.7 kmh 29.72 in1006.4 mb 0.00 in0.0 mm 0.00 in/hr0.0 mm/hr 0.06 in1.5 mm
05:56 PM 52.5°F11.4°C 48.4°F9.1°C 86% Calm Calm 3.0 mph4.8 kmh 29.72 in1006.4 mb 0.00 in0.0 mm 0.00 in/hr0.0 mm/hr 0.06 in1.5 mm
06:06 PM 52.5°F11.4°C 48.4°F9.1°C 86% Calm Calm 2.0 mph3.2 kmh 29.72 in1006.4 mb 0.00 in0.0 mm 0.00 in/hr0.0 mm/hr 0.06 in1.5 mm
06:16 PM 52.3°F11.3°C 48.2°F9.0°C 86% Calm Calm 2.9 mph4.7 kmh 29.72 in1006.4 mb 0.00 in0.0 mm 0.00 in/hr0.0 mm/hr 0.06 in1.5 mm
06:26 PM 52.2°F11.2°C 47.8°F8.8°C 85% 0.9 mph NNW1.4 kmh NNW 6.0 mph9.7 kmh 29.73 in1006.8 mb 0.00 in0.0 mm 0.00 in/hr0.0 mm/hr 0.06 in1.5 mm
06:36 PM 52.0°F11.1°C 47.7°F8.7°C 85% 2.0 mph NW3.2 kmh NW 6.0 mph9.7 kmh 29.73 in1006.8 mb 0.00 in0.0 mm 0.00 in/hr0.0 mm/hr 0.06 in1.5 mm
06:46 PM 51.6°F10.9°C 47.3°F8.5°C 85% 0.9 mph ESE1.4 kmh ESE 4.0 mph6.4 kmh 29.73 in1006.8 mb 0.00 in0.0 mm 0.00 in/hr0.0 mm/hr 0.06 in1.5 mm
06:56 PM 51.6°F10.9°C 46.9°F8.3°C 84% Calm Calm 2.0 mph3.2 kmh 29.73 in1006.8 mb 0.00 in0.0 mm 0.00 in/hr0.0 mm/hr 0.06 in1.5 mm
07:06 PM 51.6°F10.9°C 46.9°F8.3°C 84% 0.9 mph W1.4 kmh W 2.9 mph4.7 kmh 29.74 in1007.1 mb 0.00 in0.0 mm 0.00 in/hr0.0 mm/hr 0.06 in1.5 mm
07:16 PM 51.6°F10.9°C 46.9°F8.3°C 84% 0.9 mph W1.4 kmh W 6.9 mph11.1 kmh 29.74 in1007.1 mb 0.00 in0.0 mm 0.00 in/hr0.0 mm/hr 0.06 in1.5 mm
07:26 PM 51.4°F10.8°C 46.8°F8.2°C 84% Calm Calm 2.9 mph4.7 kmh 29.74 in1007.1 mb 0.00 in0.0 mm 0.00 in/hr0.0 mm/hr 0.06 in1.5 mm
07:36 PM 51.4°F10.8°C 47.1°F8.4°C 85% Calm Calm 2.9 mph4.7 kmh 29.74 in1007.1 mb 0.00 in0.0 mm 0.00 in/hr0.0 mm/hr 0.06 in1.5 mm
07:46 PM 51.4°F10.8°C 46.8°F8.2°C 84% 0.9 mph WNW1.4 kmh WNW 4.9 mph7.9 kmh 29.74 in1007.1 mb 0.00 in0.0 mm 0.00 in/hr0.0 mm/hr 0.06 in1.5 mm
07:56 PM 51.4°F10.8°C 46.8°F8.2°C 84% Calm Calm 2.9 mph4.7 kmh 29.74 in1007.1 mb 0.00 in0.0 mm 0.00 in/hr0.0 mm/hr 0.06 in1.5 mm
08:06 PM 51.4°F10.8°C 46.8°F8.2°C 84% 0.9 mph NW1.4 kmh NW 5.0 mph8.0 kmh 29.74 in1007.1 mb 0.00 in0.0 mm 0.00 in/hr0.0 mm/hr 0.06 in1.5 mm
08:16 PM 51.3°F10.7°C 46.2°F7.9°C 83% 0.9 mph SW1.4 kmh SW 4.0 mph6.4 kmh 29.74 in1007.1 mb 0.00 in0.0 mm 0.00 in/hr0.0 mm/hr 0.06 in1.5 mm
08:26 PM 51.4°F10.8°C 46.8°F8.2°C 84% 0.9 mph W1.4 kmh W 4.0 mph6.4 kmh 29.74 in1007.1 mb 0.00 in0.0 mm 0.00 in/hr0.0 mm/hr 0.06 in1.5 mm
08:36 PM 51.3°F10.7°C 46.6°F8.1°C 84% 0.9 mph W1.4 kmh W 4.9 mph7.9 kmh 29.74 in1007.1 mb 0.00 in0.0 mm 0.00 in/hr0.0 mm/hr 0.06 in1.5 mm
08:46 PM 51.3°F10.7°C 46.6°F8.1°C 84% Calm Calm 2.9 mph4.7 kmh 29.74 in1007.1 mb 0.00 in0.0 mm 0.00 in/hr0.0 mm/hr 0.06 in1.5 mm
08:56 PM 51.1°F10.6°C 46.8°F8.2°C 85% 0.9 mph NE1.4 kmh NE 2.0 mph3.2 kmh 29.74 in1007.1 mb 0.00 in0.0 mm 0.00 in/hr0.0 mm/hr 0.06 in1.5 mm
09:06 PM 51.1°F10.6°C 46.8°F8.2°C 85% 0.9 mph NW1.4 kmh NW 3.0 mph4.8 kmh 29.74 in1007.1 mb 0.00 in0.0 mm 0.00 in/hr0.0 mm/hr 0.06 in1.5 mm
09:16 PM 50.9°F10.5°C 46.2°F7.9°C 84% 0.9 mph ENE1.4 kmh ENE 7.0 mph11.3 kmh 29.74 in1007.1 mb 0.00 in0.0 mm 0.00 in/hr0.0 mm/hr 0.06 in1.5 mm
09:26 PM 50.7°F10.4°C 46.0°F7.8°C 84% 0.9 mph N1.4 kmh N 2.9 mph4.7 kmh 29.74 in1007.1 mb 0.00 in0.0 mm 0.00 in/hr0.0 mm/hr 0.06 in1.5 mm
09:36 PM 50.7°F10.4°C 46.0°F7.8°C 84% 0.9 mph WNW1.4 kmh WNW 6.0 mph9.7 kmh 29.74 in1007.1 mb 0.00 in0.0 mm 0.00 in/hr0.0 mm/hr 0.06 in1.5 mm
09:46 PM 50.7°F10.4°C 46.0°F7.8°C 84% 0.9 mph NW1.4 kmh NW 2.9 mph4.7 kmh 29.74 in1007.1 mb 0.00 in0.0 mm 0.00 in/hr0.0 mm/hr 0.06 in1.5 mm
09:56 PM 50.5°F10.3°C 45.5°F7.5°C 83% 0.9 mph NW1.4 kmh NW 4.0 mph6.4 kmh 29.74 in1007.1 mb 0.00 in0.0 mm 0.00 in/hr0.0 mm/hr 0.06 in1.5 mm
10:06 PM 50.5°F10.3°C 45.9°F7.7°C 84% Calm Calm 2.9 mph4.7 kmh 29.74 in1007.1 mb 0.00 in0.0 mm 0.00 in/hr0.0 mm/hr 0.06 in1.5 mm
10:16 PM 50.4°F10.2°C 45.7°F7.6°C 84% Calm Calm 4.0 mph6.4 kmh 29.74 in1007.1 mb 0.00 in0.0 mm 0.00 in/hr0.0 mm/hr 0.06 in1.5 mm
10:26 PM 50.4°F10.2°C 45.7°F7.6°C 84% 0.9 mph NW1.4 kmh NW 4.0 mph6.4 kmh 29.74 in1007.1 mb 0.00 in0.0 mm 0.00 in/hr0.0 mm/hr 0.06 in1.5 mm
10:36 PM 50.4°F10.2°C 45.7°F7.6°C 84% Calm Calm 4.0 mph6.4 kmh 29.75 in1007.5 mb 0.00 in0.0 mm 0.00 in/hr0.0 mm/hr 0.06 in1.5 mm
10:46 PM 50.2°F10.1°C 45.5°F7.5°C 84% Calm Calm 0.9 mph1.4 kmh 29.75 in1007.5 mb 0.00 in0.0 mm 0.00 in/hr0.0 mm/hr 0.06 in1.5 mm
10:56 PM 50.2°F10.1°C 45.9°F7.7°C 85% Calm Calm 2.0 mph3.2 kmh 29.75 in1007.5 mb 0.00 in0.0 mm 0.00 in/hr0.0 mm/hr 0.06 in1.5 mm
11:05 PM -5537.2°C -5537.2°C - - N16091.8 kmh N -- -338605.1 mb 0.00 in0.0 mm 0.00 in/hr0.0 mm/hr 0.09 in2.3 mm
11:06 PM 50.2°F10.1°C 45.5°F7.5°C 84% Calm Calm 2.9 mph4.7 kmh 29.75 in1007.5 mb 0.00 in0.0 mm 0.00 in/hr0.0 mm/hr 0.06 in1.5 mm
11:16 PM 50.0°F10.0°C 45.7°F7.6°C 85% Calm Calm 2.9 mph4.7 kmh 29.75 in1007.5 mb 0.00 in0.0 mm 0.00 in/hr0.0 mm/hr 0.06 in1.5 mm
11:26 PM 50.0°F10.0°C 45.3°F7.4°C 84% Calm Calm 4.0 mph6.4 kmh 29.75 in1007.5 mb 0.00 in0.0 mm 0.00 in/hr0.0 mm/hr 0.06 in1.5 mm
11:36 PM 49.6°F9.8°C 45.0°F7.2°C 84% 0.9 mph NW1.4 kmh NW 4.0 mph6.4 kmh 29.75 in1007.5 mb 0.00 in0.0 mm 0.00 in/hr0.0 mm/hr 0.06 in1.5 mm
11:46 PM 49.3°F9.6°C 44.6°F7.0°C 84% Calm Calm 2.0 mph3.2 kmh 29.75 in1007.5 mb 0.00 in0.0 mm 0.00 in/hr0.0 mm/hr 0.06 in1.5 mm
11:56 PM 48.7°F9.3°C 44.4°F6.9°C 85% Calm Calm 2.0 mph3.2 kmh 29.75 in1007.5 mb 0.00 in0.0 mm 0.00 in/hr0.0 mm/hr 0.06 in1.5 mm